• Join FlightAware (Why Join?)
  • Login
  • US Flag 
11:10PM EST


 

Airport Tracker/Info


-or-


 

Live Flight TrackerFlight Track Log ✈ TAM3714 ✈ 24-Jun-2013 ✈ SBSP / CGH - SBBR / BSB

Flight Track Log - Related Links

Times and Time Zones

All times are in EDT time to prevent confusion due to time zone crossing. See the TAM3714 flight status page for this flight to view local times or setup timezone preferences in your user account.

Time Position Orientation Groundspeed Altitude Reporting Facility
EDT Latitude Longitude Course Direction KTS MPH feet Rate Location/Type
09:19PM -19.7046 -47.3060 351° North  Level Estimated
09:20PM -19.6193 -47.3198 351° North  Level Estimated
09:21PM -19.5340 -47.3335 351° North  Level Estimated
09:22PM -19.4487 -47.3472 351° North  Level Estimated
09:23PM -19.3634 -47.3610 351° North  Level Estimated
09:24PM -19.2782 -47.3747 351° North  Level Estimated
09:25PM -19.1929 -47.3884 351° North  Level Estimated
09:26PM -19.1076 -47.4021 351° North  Level Estimated
09:27PM -19.0223 -47.4157 351° North  Level Estimated
09:28PM -18.9370 -47.4294 351° North  Level Estimated
09:29PM -18.8517 -47.4430 351° North  Level Estimated
09:30PM -18.7664 -47.4566 351° North  Level Estimated
09:31PM -18.6811 -47.4702 351° North  Level Estimated
09:32PM -18.5958 -47.4838 351° North  Level Estimated
09:33PM -18.5105 -47.4974 351° North  Level Estimated
09:34PM -18.4252 -47.5110 351° North  Level Estimated
09:35PM -18.3399 -47.5246 351° North  Level Estimated
09:36PM -18.2546 -47.5381 351° North  Level Estimated
09:37PM -18.1692 -47.5516 351° North  Level Estimated
09:38PM -18.0839 -47.5651 351° North  Level Estimated
09:39PM -17.9986 -47.5786 351° North  Level Estimated
09:40PM -17.9133 -47.5921 351° North  Level Estimated
09:41PM -17.8280 -47.6056 351° North  Level Estimated
09:42PM -17.7427 -47.6191 351° North  Level Estimated
09:43PM -17.6574 -47.6325 351° North  Level Estimated
09:44PM -17.5721 -47.6460 351° North  Level Estimated
09:45PM -17.4868 -47.6594 351° North  Level Estimated
09:46PM -17.4014 -47.6728 351° North  Level Estimated
09:47PM -17.3161 -47.6862 351° North  Level Estimated
09:48PM -17.2308 -47.6996 351° North  Level Estimated
09:49PM -17.1455 -47.7130 351° North  Level Estimated
09:50PM -17.0602 -47.7263 351° North  Level Estimated
09:51PM -16.9748 -47.7397 351° North  Level Estimated
09:52PM -16.8895 -47.7530 351° North  Level Estimated
09:53PM -16.8042 -47.7664 351° North  Level Estimated
09:54PM -16.7189 -47.7797 351° North  Level Estimated
09:55PM -16.6336 -47.7930 352° North  Level Estimated
09:56PM -16.5482 -47.8063 352° North  Level Estimated
09:57PM -16.4629 -47.8195 352° North  Level Estimated
09:58PM -16.3776 -47.8328 352° North  Level Estimated
09:59PM -16.2923 -47.8461 352° North  Level Estimated
10:00PM -16.2069 -47.8593 352° North  Level Estimated
10:01PM -16.1216 -47.8726 352° North  Level Estimated
10:02PM -16.0363 -47.8858 352° North  Level Estimated
10:03PM -15.9509 -47.8990 352° North  Level Estimated
10:04PM -15.8656 -47.9122 352° North  Level Estimated
10:05PM -15.8626 -47.9127 352° North  Level Estimated
10:06PM -15.8626 -47.9127 128° Southeast  Level Estimated
10:07PM -15.8626 -47.9127 128° Southeast  Level Estimated
10:08PM -15.8626 -47.9127 128° Southeast  Level Estimated
10:09PM -15.8626 -47.9127 128° Southeast  Level Estimated
10:10PM -15.8626 -47.9127 128° Southeast  Level Estimated
10:11PM -15.8626 -47.9127 128° Southeast  Level Estimated
10:12PM -15.8626 -47.9127 128° Southeast  Level Estimated
10:13PM -15.8626 -47.9127 128° Southeast  Level Estimated
10:14PM -15.8626 -47.9127 128° Southeast  Level Estimated
10:15PM -15.8626 -47.9127 128° Southeast  Level Estimated
10:16PM -15.8626 -47.9127 128° Southeast  Level Estimated
10:17PM -15.8626 -47.9127 128° Southeast  Level Estimated
10:18PM -15.8626 -47.9127 128° Southeast  Level Estimated
10:19PM -15.8626 -47.9127 128° Southeast  Level Estimated
10:20PM -15.8626 -47.9127 128° Southeast  Level Estimated